createdAt,value
2018-09-27T00:02:27.554Z,13.00
2018-09-27T00:04:56.760Z,13.00
2018-09-27T00:07:25.942Z,13.00
2018-09-27T00:09:55.418Z,13.00
2018-09-27T00:12:24.938Z,13.00
2018-09-27T00:14:54.584Z,13.00
2018-09-27T00:17:23.745Z,13.00
2018-09-27T00:19:53.183Z,12.90
2018-09-27T00:22:22.706Z,12.90
2018-09-27T00:24:51.856Z,12.90
2018-09-27T00:27:21.142Z,12.80
2018-09-27T00:29:50.277Z,12.80
2018-09-27T00:32:19.705Z,12.80
2018-09-27T00:34:49.670Z,12.70
2018-09-27T00:37:19.426Z,12.70
2018-09-27T00:39:48.849Z,12.60
2018-09-27T00:42:17.877Z,12.60
2018-09-27T00:44:47.511Z,12.60
2018-09-27T00:47:16.726Z,12.60
2018-09-27T00:49:45.869Z,12.50
2018-09-27T00:52:14.888Z,12.50
2018-09-27T00:54:44.604Z,12.50
2018-09-27T00:57:13.778Z,12.50
2018-09-27T00:59:42.881Z,12.40
2018-09-27T01:02:11.941Z,12.40
2018-09-27T01:04:41.095Z,12.40
2018-09-27T01:07:10.081Z,12.40
2018-09-27T01:09:39.113Z,12.40
2018-09-27T01:12:08.228Z,12.30
2018-09-27T01:14:37.431Z,12.30
2018-09-27T01:17:06.505Z,12.30
2018-09-27T01:19:35.680Z,12.30
2018-09-27T01:22:05.509Z,12.30
2018-09-27T01:24:34.884Z,12.20
2018-09-27T01:27:03.995Z,12.20
2018-09-27T01:29:32.990Z,12.20
2018-09-27T01:32:02.081Z,12.20
2018-09-27T01:34:31.271Z,12.20
2018-09-27T01:37:00.422Z,12.20
2018-09-27T01:39:29.607Z,12.10
2018-09-27T01:41:58.659Z,12.10
2018-09-27T01:44:27.756Z,12.10
2018-09-27T01:46:56.857Z,12.10
2018-09-27T01:49:26.257Z,12.10
2018-09-27T01:51:55.288Z,12.20
2018-09-27T01:54:24.325Z,12.20
2018-09-27T01:56:53.599Z,12.30
2018-09-27T01:59:22.747Z,12.30
2018-09-27T02:01:51.805Z,12.30
2018-09-27T02:04:21.241Z,12.30
2018-09-27T02:06:50.583Z,12.30
2018-09-27T02:09:19.700Z,12.30
2018-09-27T02:11:48.936Z,12.30
2018-09-27T02:14:18.236Z,12.20
2018-09-27T02:16:47.774Z,12.20
2018-09-27T02:19:17.170Z,12.10
2018-09-27T02:21:46.551Z,12.00
2018-09-27T02:24:15.876Z,12.00
2018-09-27T02:26:45.764Z,11.90
2018-09-27T02:29:14.920Z,11.80
2018-09-27T02:31:44.133Z,11.70
2018-09-27T02:34:13.295Z,11.60
2018-09-27T02:36:42.440Z,11.40
2018-09-27T02:39:12.064Z,11.30
2018-09-27T02:41:41.180Z,11.20
2018-09-27T02:44:10.285Z,11.10
2018-09-27T02:46:39.348Z,11.00
2018-09-27T02:49:08.536Z,10.90
2018-09-27T02:51:37.618Z,10.80
2018-09-27T02:54:06.774Z,10.70
2018-09-27T02:56:35.978Z,10.70
2018-09-27T02:59:05.390Z,10.70
2018-09-27T03:01:34.395Z,10.60
2018-09-27T03:04:03.686Z,10.60
2018-09-27T03:06:32.770Z,10.50
2018-09-27T03:09:01.851Z,10.50
2018-09-27T03:11:31.170Z,10.40
2018-09-27T03:14:00.302Z,10.30
2018-09-27T03:16:29.398Z,10.30
2018-09-27T03:18:58.519Z,10.20
2018-09-27T03:21:27.783Z,10.20
2018-09-27T03:23:56.931Z,10.20
2018-09-27T03:26:26.167Z,10.20
2018-09-27T03:28:55.185Z,10.20
2018-09-27T03:31:24.299Z,10.10
2018-09-27T03:33:53.536Z,10.10
2018-09-27T03:36:22.733Z,10.00
2018-09-27T03:38:51.767Z,10.00
2018-09-27T03:41:20.897Z,9.90
2018-09-27T03:43:50.000Z,9.90
2018-09-27T03:46:19.280Z,9.90
2018-09-27T03:48:48.480Z,9.90
2018-09-27T03:51:17.660Z,9.90
2018-09-27T03:53:46.714Z,10.00
2018-09-27T03:56:15.805Z,10.20
2018-09-27T03:58:45.108Z,10.30
2018-09-27T04:01:14.137Z,10.30
2018-09-27T04:03:43.295Z,10.40
2018-09-27T04:06:12.389Z,10.40
2018-09-27T04:08:41.540Z,10.30
2018-09-27T04:11:10.868Z,10.20
2018-09-27T04:13:40.084Z,10.10
2018-09-27T04:16:09.374Z,10.00
2018-09-27T04:18:38.591Z,9.90
2018-09-27T04:21:07.960Z,9.80
2018-09-27T04:23:37.227Z,9.80
2018-09-27T04:26:06.409Z,9.70
2018-09-27T04:28:35.579Z,9.70
2018-09-27T04:31:04.623Z,9.70
2018-09-27T04:33:33.716Z,9.70
2018-09-27T04:36:03.069Z,9.70
2018-09-27T04:38:32.377Z,9.70
2018-09-27T04:41:01.780Z,9.60
2018-09-27T04:43:30.804Z,9.60
2018-09-27T04:45:59.902Z,9.60
2018-09-27T04:48:29.026Z,9.60
2018-09-27T04:50:58.111Z,9.60
2018-09-27T04:53:27.207Z,9.60
2018-09-27T04:55:56.379Z,9.60
2018-09-27T04:58:25.646Z,9.60
2018-09-27T05:00:54.789Z,9.50
2018-09-27T05:03:24.086Z,9.50
2018-09-27T05:05:53.160Z,9.60
2018-09-27T05:08:22.277Z,9.60
2018-09-27T05:10:51.638Z,9.60
2018-09-27T05:13:21.027Z,9.50
2018-09-27T05:15:50.139Z,9.40
2018-09-27T05:18:19.128Z,9.40
2018-09-27T05:20:48.209Z,9.50
2018-09-27T05:23:17.471Z,9.40
2018-09-27T05:25:46.874Z,9.40
2018-09-27T05:28:16.061Z,9.40
2018-09-27T05:30:45.113Z,9.40
2018-09-27T05:33:14.300Z,9.40
2018-09-27T05:35:43.897Z,9.30
2018-09-27T05:38:12.940Z,9.30
2018-09-27T05:40:42.078Z,9.30
2018-09-27T05:43:11.102Z,9.30
2018-09-27T05:45:40.460Z,9.30
2018-09-27T05:48:09.648Z,9.30
2018-09-27T05:50:39.027Z,9.30
2018-09-27T05:53:08.170Z,9.30
2018-09-27T05:55:37.771Z,9.30
2018-09-27T05:58:07.068Z,9.30
2018-09-27T06:00:36.328Z,9.30
2018-09-27T06:03:05.733Z,9.40
2018-09-27T06:05:58.138Z,9.40
2018-09-27T06:08:27.379Z,9.50
2018-09-27T06:10:56.396Z,9.60
2018-09-27T06:13:25.582Z,9.60
2018-09-27T06:15:54.614Z,9.70
2018-09-27T06:18:23.908Z,9.80
2018-09-27T06:20:53.321Z,9.80
2018-09-27T06:23:22.442Z,9.90
2018-09-27T06:25:51.635Z,10.00
2018-09-27T06:28:21.082Z,10.00
2018-09-27T06:30:50.574Z,10.00
2018-09-27T06:36:13.107Z,10.20
2018-09-27T06:38:42.508Z,10.30
2018-09-27T06:41:11.496Z,10.40
2018-09-27T06:43:40.770Z,10.50
2018-09-27T06:46:10.241Z,10.60
2018-09-27T06:48:39.416Z,10.70
2018-09-27T06:51:08.445Z,10.80
2018-09-27T06:53:37.610Z,10.90
2018-09-27T06:56:07.474Z,11.00
2018-09-27T06:58:36.767Z,11.10
2018-09-27T07:01:06.253Z,11.20
2018-09-27T07:03:35.540Z,11.30
2018-09-27T07:06:04.682Z,11.30
2018-09-27T07:08:33.848Z,11.50
2018-09-27T07:11:03.148Z,11.50
2018-09-27T07:13:33.300Z,11.60
2018-09-27T07:16:02.491Z,11.80
2018-09-27T07:18:32.340Z,11.80
2018-09-27T07:21:01.624Z,12.00
2018-09-27T07:23:30.810Z,12.10
2018-09-27T07:26:00.154Z,12.20
2018-09-27T07:28:29.470Z,12.30
2018-09-27T07:30:58.548Z,12.40
2018-09-27T07:33:27.589Z,12.50
2018-09-27T07:35:56.970Z,12.50
2018-09-27T07:38:26.134Z,12.70
2018-09-27T07:40:55.300Z,12.70
2018-09-27T07:43:24.412Z,12.90
2018-09-27T07:45:53.646Z,13.00
2018-09-27T07:48:22.752Z,13.10
2018-09-27T07:50:51.860Z,13.20
2018-09-27T07:53:21.002Z,13.40
2018-09-27T07:55:50.235Z,13.50
2018-09-27T07:58:19.479Z,13.60
2018-09-27T08:00:48.551Z,13.70
2018-09-27T08:03:17.665Z,13.80
2018-09-27T08:05:46.859Z,14.00
2018-09-27T08:08:16.023Z,14.10
2018-09-27T08:10:45.280Z,14.20
2018-09-27T08:13:14.406Z,14.30
2018-09-27T08:15:43.649Z,14.40
2018-09-27T08:18:12.794Z,14.60
2018-09-27T08:20:42.137Z,14.70
2018-09-27T08:23:11.039Z,14.80
2018-09-27T08:25:40.533Z,14.90
2018-09-27T08:28:09.541Z,15.00
2018-09-27T08:30:43.311Z,15.10
2018-09-27T08:33:12.504Z,15.20
2018-09-27T08:35:41.729Z,15.30
2018-09-27T08:38:10.910Z,15.40
2018-09-27T08:40:40.094Z,15.50
2018-09-27T08:43:09.277Z,15.60
2018-09-27T08:45:38.493Z,15.70
2018-09-27T08:48:07.666Z,15.80
2018-09-27T08:50:36.718Z,15.90
2018-09-27T08:53:05.997Z,16.00
2018-09-27T08:55:35.107Z,16.10
2018-09-27T08:58:04.282Z,16.20
2018-09-27T09:00:33.375Z,16.30
2018-09-27T09:03:02.451Z,16.30
2018-09-27T09:05:31.461Z,16.40
2018-09-27T09:08:00.526Z,16.50
2018-09-27T09:10:29.772Z,16.60
2018-09-27T09:12:59.211Z,16.60
2018-09-27T09:15:28.415Z,16.70
2018-09-27T09:17:57.604Z,16.80
2018-09-27T09:20:26.982Z,16.90
2018-09-27T09:22:56.100Z,16.90
2018-09-27T09:25:25.283Z,17.00
2018-09-27T09:27:54.477Z,17.10
2018-09-27T09:30:23.607Z,17.20
2018-09-27T09:32:52.685Z,17.20
2018-09-27T09:35:21.892Z,17.30
2018-09-27T09:37:50.988Z,17.40
2018-09-27T09:40:20.192Z,17.60
2018-09-27T09:42:49.273Z,17.60
2018-09-27T09:45:18.431Z,17.70
2018-09-27T09:47:47.512Z,17.80
2018-09-27T09:50:16.617Z,17.90
2018-09-27T09:52:45.658Z,17.90
2018-09-27T09:55:14.887Z,18.00
2018-09-27T09:57:44.042Z,18.10
2018-09-27T10:00:13.108Z,18.10
2018-09-27T10:02:42.298Z,18.20
2018-09-27T10:05:11.375Z,18.30
2018-09-27T10:07:40.709Z,18.40
2018-09-27T10:10:09.835Z,18.50
2018-09-27T10:12:38.966Z,18.60
2018-09-27T10:15:08.122Z,18.60
2018-09-27T10:17:37.249Z,18.60
2018-09-27T10:20:06.437Z,18.80
2018-09-27T10:22:35.468Z,18.90
2018-09-27T10:25:04.613Z,19.00
2018-09-27T10:27:33.724Z,19.10
2018-09-27T10:30:02.774Z,19.10
2018-09-27T10:32:31.945Z,19.20
2018-09-27T10:35:01.037Z,19.30
2018-09-27T10:37:30.578Z,19.40
2018-09-27T10:39:59.918Z,19.50
2018-09-27T10:42:29.192Z,19.50
2018-09-27T10:44:59.364Z,19.60
2018-09-27T10:47:28.489Z,19.70
2018-09-27T10:49:57.498Z,19.70
2018-09-27T10:52:26.548Z,19.70
2018-09-27T10:54:56.386Z,19.80
2018-09-27T10:57:25.858Z,19.80
2018-09-27T10:59:55.055Z,19.80
2018-09-27T11:02:24.234Z,19.80
2018-09-27T11:04:53.318Z,19.80
2018-09-27T11:07:23.881Z,19.90
2018-09-27T11:09:55.465Z,19.80
2018-09-27T11:12:24.904Z,19.90
2018-09-27T11:14:54.633Z,20.00
2018-09-27T11:17:23.977Z,20.00
2018-09-27T11:19:53.170Z,20.10
2018-09-27T11:22:22.510Z,20.20
2018-09-27T11:24:51.826Z,20.20
2018-09-27T11:27:21.664Z,20.20
2018-09-27T11:29:56.236Z,20.20
2018-09-27T11:32:30.631Z,20.20
2018-09-27T11:35:00.019Z,20.20
2018-09-27T11:37:29.139Z,20.20
2018-09-27T11:39:58.270Z,20.30
2018-09-27T11:42:27.581Z,20.30
2018-09-27T11:44:56.675Z,20.30
2018-09-27T11:47:25.816Z,20.40
2018-09-27T11:49:55.036Z,20.40
2018-09-27T11:52:24.053Z,20.50
2018-09-27T11:54:53.498Z,20.60
2018-09-27T11:57:22.564Z,20.50
2018-09-27T11:59:52.472Z,20.60
2018-09-27T12:02:21.716Z,20.60
2018-09-27T12:04:50.880Z,20.60
2018-09-27T12:07:20.057Z,20.70
2018-09-27T12:09:49.125Z,20.70
2018-09-27T12:12:19.976Z,20.70
2018-09-27T12:14:49.069Z,20.70
2018-09-27T12:17:18.255Z,20.70
2018-09-27T12:19:47.749Z,20.60
2018-09-27T12:22:16.751Z,20.50
2018-09-27T12:24:45.905Z,20.50
2018-09-27T12:27:15.029Z,20.70
2018-09-27T12:29:45.033Z,20.70
2018-09-27T12:32:14.284Z,20.70
2018-09-27T12:34:43.390Z,20.60
2018-09-27T12:37:12.582Z,20.60
2018-09-27T12:39:42.935Z,20.50
2018-09-27T12:42:12.132Z,20.50
2018-09-27T12:44:41.132Z,20.40
2018-09-27T12:47:10.593Z,20.40
2018-09-27T12:49:39.630Z,20.40
2018-09-27T12:52:10.408Z,20.50
2018-09-27T12:54:39.333Z,20.60
2018-09-27T12:57:08.417Z,20.70
2018-09-27T12:59:37.607Z,20.80
2018-09-27T13:02:07.053Z,20.80
2018-09-27T13:04:36.201Z,20.90
2018-09-27T13:07:05.368Z,21.00
2018-09-27T13:09:34.570Z,21.00
2018-09-27T13:12:04.696Z,21.10
2018-09-27T13:14:33.889Z,21.10
2018-09-27T13:17:02.912Z,21.10
2018-09-27T13:19:31.966Z,21.20
2018-09-27T13:22:01.350Z,21.30
2018-09-27T13:24:30.476Z,21.40
2018-09-27T13:26:59.660Z,21.40
2018-09-27T13:29:28.898Z,21.50
2018-09-27T13:31:58.084Z,21.60
2018-09-27T13:34:27.252Z,21.70
2018-09-27T13:36:56.432Z,21.70
2018-09-27T13:39:25.526Z,21.80
2018-09-27T13:41:54.593Z,22.00
2018-09-27T13:44:23.789Z,22.10
2018-09-27T13:46:52.968Z,22.20
2018-09-27T13:49:22.076Z,22.40
2018-09-27T13:51:51.172Z,22.50
2018-09-27T13:54:20.184Z,22.50
2018-09-27T13:56:49.456Z,22.50
2018-09-27T13:59:18.511Z,22.50
2018-09-27T14:01:47.555Z,22.60
2018-09-27T14:04:16.775Z,22.70
2018-09-27T14:06:45.810Z,22.60
2018-09-27T14:09:14.870Z,22.60
2018-09-27T14:11:43.940Z,22.60
2018-09-27T14:14:13.091Z,22.50
2018-09-27T14:16:42.199Z,22.50
2018-09-27T14:19:11.412Z,22.30
2018-09-27T14:21:40.677Z,22.30
2018-09-27T14:24:09.801Z,22.20
2018-09-27T14:26:38.873Z,22.10
2018-09-27T14:29:07.982Z,22.00
2018-09-27T14:31:37.153Z,21.80
2018-09-27T14:34:06.382Z,21.80
2018-09-27T14:36:35.537Z,21.80
2018-09-27T14:39:06.254Z,21.80
2018-09-27T14:41:35.310Z,21.80
2018-09-27T14:44:04.411Z,21.90
2018-09-27T14:46:33.570Z,21.90
2018-09-27T14:49:02.580Z,21.80
2018-09-27T14:51:31.650Z,21.70
2018-09-27T14:54:00.754Z,21.60
2018-09-27T14:56:30.110Z,21.50
2018-09-27T14:58:59.222Z,21.40
2018-09-27T15:01:28.454Z,21.40
2018-09-27T15:03:59.078Z,21.30
2018-09-27T15:06:28.149Z,21.30
2018-09-27T15:09:00.115Z,21.20
2018-09-27T15:11:29.289Z,21.20
2018-09-27T15:14:03.708Z,21.20
2018-09-27T15:16:32.814Z,21.10
2018-09-27T15:19:02.300Z,21.10
2018-09-27T15:21:32.034Z,21.20
2018-09-27T15:24:02.021Z,21.50
2018-09-27T15:26:32.852Z,21.50
2018-09-27T15:29:02.324Z,21.70
2018-09-27T15:31:31.529Z,22.00
2018-09-27T15:34:00.810Z,22.30
2018-09-27T15:36:29.891Z,22.30
2018-09-27T15:38:59.084Z,22.20
2018-09-27T15:41:28.381Z,22.20
2018-09-27T15:43:58.324Z,22.30
2018-09-27T15:46:27.449Z,22.40
2018-09-27T15:48:56.714Z,22.50
2018-09-27T15:51:25.899Z,22.50
2018-09-27T15:53:57.249Z,22.20
2018-09-27T15:56:27.935Z,21.90
2018-09-27T15:59:00.466Z,21.60
2018-09-27T16:01:32.695Z,21.30
2018-09-27T16:04:04.146Z,21.00
2018-09-27T16:06:36.298Z,20.80
2018-09-27T16:09:10.679Z,20.60
2018-09-27T16:11:43.488Z,20.50
2018-09-27T16:14:15.060Z,20.40
2018-09-27T16:16:47.234Z,20.30
2018-09-27T16:19:19.757Z,20.10
2018-09-27T16:21:51.567Z,20.00
2018-09-27T16:24:23.781Z,20.00
2018-09-27T16:26:56.197Z,19.90
2018-09-27T16:29:29.780Z,19.90
2018-09-27T16:32:02.610Z,19.90
2018-09-27T16:34:33.715Z,19.80
2018-09-27T16:37:04.493Z,19.70
2018-09-27T16:39:36.402Z,19.50
2018-09-27T16:42:05.533Z,19.50
2018-09-27T16:44:34.574Z,19.40
2018-09-27T16:47:03.723Z,19.40
2018-09-27T16:49:33.162Z,19.20
2018-09-27T16:52:02.311Z,19.10
2018-09-27T16:54:31.605Z,19.00
2018-09-27T16:57:00.829Z,18.80
2018-09-27T16:59:29.905Z,18.70
2018-09-27T17:01:59.196Z,18.50
2018-09-27T17:04:28.209Z,18.40
2018-09-27T17:06:57.286Z,18.30
2018-09-27T17:09:26.393Z,18.20
2018-09-27T17:11:55.469Z,18.20
2018-09-27T17:14:24.657Z,18.10
2018-09-27T17:16:53.953Z,18.10
2018-09-27T17:19:23.054Z,18.10
2018-09-27T17:21:52.169Z,18.00
2018-09-27T17:24:21.217Z,18.00
2018-09-27T17:26:50.390Z,17.90
2018-09-27T17:29:19.568Z,17.80
2018-09-27T17:31:48.689Z,17.80
2018-09-27T17:34:17.847Z,17.80
2018-09-27T17:36:47.090Z,17.70
2018-09-27T17:39:16.413Z,17.70
2018-09-27T17:41:46.708Z,17.70
2018-09-27T17:44:17.385Z,17.70
2018-09-27T17:46:46.688Z,17.70
2018-09-27T17:49:15.796Z,17.70
2018-09-27T17:51:45.062Z,17.80
2018-09-27T17:54:14.706Z,17.70
2018-09-27T17:56:44.440Z,17.70
2018-09-27T17:59:13.552Z,17.70
2018-09-27T18:01:42.635Z,17.60
2018-09-27T18:04:11.776Z,17.60
2018-09-27T18:06:40.818Z,17.60
2018-09-27T18:09:11.431Z,17.60
2018-09-27T18:11:41.703Z,17.60
2018-09-27T18:14:11.021Z,17.60
2018-09-27T18:16:40.786Z,17.50
2018-09-27T18:19:09.975Z,17.50
2018-09-27T18:21:39.146Z,17.50
2018-09-27T18:24:09.388Z,17.60
2018-09-27T18:26:40.282Z,17.60
2018-09-27T18:29:09.440Z,17.60
2018-09-27T18:31:39.927Z,17.50
2018-09-27T18:34:09.108Z,17.40
2018-09-27T18:36:39.021Z,17.30
2018-09-27T18:39:10.421Z,17.20
2018-09-27T18:41:41.253Z,17.10
2018-09-27T18:44:10.818Z,17.10
2018-09-27T18:46:41.222Z,17.00
2018-09-27T18:49:10.711Z,16.90
2018-09-27T18:51:40.065Z,16.80
2018-09-27T18:54:09.212Z,16.60
2018-09-27T18:56:38.310Z,16.50
2018-09-27T18:59:07.385Z,16.30
2018-09-27T19:01:37.448Z,16.20
2018-09-27T19:04:06.700Z,16.10
2018-09-27T19:06:36.001Z,15.90
2018-09-27T19:09:07.114Z,15.80
2018-09-27T19:11:36.241Z,15.70
2018-09-27T19:14:05.450Z,15.50
2018-09-27T19:16:35.190Z,15.40
2018-09-27T19:19:04.272Z,15.20
2018-09-27T19:21:34.101Z,15.00
2018-09-27T19:24:03.199Z,14.90
2018-09-27T19:26:32.233Z,14.80
2018-09-27T19:29:01.307Z,14.70
2018-09-27T19:31:30.382Z,14.60
2018-09-27T19:33:59.676Z,14.50
2018-09-27T19:36:29.170Z,14.50
2018-09-27T19:38:58.393Z,14.40
2018-09-27T19:41:27.493Z,14.40
2018-09-27T19:43:56.671Z,14.40
2018-09-27T19:46:25.837Z,14.30
2018-09-27T19:48:54.891Z,14.30
2018-09-27T19:51:23.938Z,14.20
2018-09-27T19:53:53.038Z,14.20
2018-09-27T19:56:22.685Z,14.20
2018-09-27T19:58:52.033Z,14.20
2018-09-27T20:01:21.186Z,14.10
2018-09-27T20:03:50.262Z,14.10
2018-09-27T20:06:19.464Z,14.00
2018-09-27T20:08:48.711Z,14.00
2018-09-27T20:11:17.842Z,13.90
2018-09-27T20:13:47.014Z,13.90
2018-09-27T20:16:16.201Z,13.90
2018-09-27T20:18:45.378Z,14.00
2018-09-27T20:21:16.342Z,14.00
2018-09-27T20:23:46.366Z,14.00
2018-09-27T20:26:15.705Z,14.00
2018-09-27T20:28:46.781Z,14.00
2018-09-27T20:31:17.496Z,13.90
2018-09-27T20:33:48.456Z,13.80
2018-09-27T20:36:18.753Z,13.70
2018-09-27T20:38:48.866Z,13.70
2018-09-27T20:41:18.180Z,13.60
2018-09-27T20:43:47.742Z,13.60
2018-09-27T20:46:17.324Z,13.60
2018-09-27T20:48:46.467Z,13.50
2018-09-27T20:51:15.556Z,13.50
2018-09-27T20:53:44.662Z,13.60
2018-09-27T20:56:13.777Z,13.70
2018-09-27T20:58:43.017Z,13.70
2018-09-27T21:01:12.783Z,13.90
2018-09-27T21:03:44.173Z,14.00
2018-09-27T21:06:14.479Z,14.10
2018-09-27T21:08:43.637Z,14.20
2018-09-27T21:11:17.854Z,14.30
2018-09-27T21:13:50.402Z,14.30
2018-09-27T21:16:19.820Z,14.30
2018-09-27T21:18:49.982Z,14.30
2018-09-27T21:21:20.352Z,14.30
2018-09-27T21:23:49.653Z,14.20
2018-09-27T21:26:19.432Z,14.20
2018-09-27T21:28:51.917Z,14.20
2018-09-27T21:31:21.020Z,14.20
2018-09-27T21:33:50.410Z,14.30
2018-09-27T21:36:19.655Z,14.30
2018-09-27T21:38:48.753Z,14.40
2018-09-27T21:41:17.954Z,14.50
2018-09-27T21:43:48.951Z,14.50
2018-09-27T21:46:18.139Z,14.50
2018-09-27T21:48:49.052Z,14.50
2018-09-27T21:51:19.642Z,14.60
2018-09-27T21:53:49.879Z,14.50
2018-09-27T21:56:22.673Z,14.50
2018-09-27T22:01:31.616Z,14.50
2018-09-27T22:04:01.236Z,14.50
2018-09-27T22:06:30.896Z,14.50
2018-09-27T22:09:00.092Z,14.50
2018-09-27T22:11:29.203Z,14.50
2018-09-27T22:13:58.298Z,14.50
2018-09-27T22:16:27.393Z,14.50
2018-09-27T22:18:56.453Z,14.50
2018-09-27T22:21:26.020Z,14.50
2018-09-27T22:23:55.832Z,14.50
2018-09-27T22:26:25.002Z,14.50
2018-09-27T22:28:54.448Z,14.50
2018-09-27T22:31:25.075Z,14.60
2018-09-27T22:33:54.310Z,14.60
2018-09-27T22:36:23.375Z,14.50
2018-09-27T22:38:52.977Z,14.50
2018-09-27T22:41:22.510Z,14.50
2018-09-27T22:43:51.582Z,14.50
2018-09-27T22:46:20.643Z,14.50
2018-09-27T22:48:50.043Z,14.50
2018-09-27T22:51:19.084Z,14.50
2018-09-27T22:53:48.577Z,14.50
2018-09-27T22:56:17.768Z,14.50
2018-09-27T22:58:47.187Z,14.50
2018-09-27T23:01:16.678Z,14.40
2018-09-27T23:03:45.782Z,14.40
2018-09-27T23:06:14.852Z,14.40
2018-09-27T23:08:43.942Z,14.40
2018-09-27T23:11:13.038Z,14.40
2018-09-27T23:13:42.162Z,14.50
2018-09-27T23:16:11.239Z,14.50
2018-09-27T23:18:40.321Z,14.60
2018-09-27T23:21:09.461Z,14.70
2018-09-27T23:23:38.500Z,14.80
2018-09-27T23:26:07.624Z,14.80
2018-09-27T23:28:36.664Z,14.80
2018-09-27T23:31:05.764Z,14.90
2018-09-27T23:33:34.792Z,14.90
2018-09-27T23:36:03.999Z,14.90
2018-09-27T23:38:33.106Z,14.90
2018-09-27T23:41:02.225Z,14.90
2018-09-27T23:43:31.286Z,14.80
2018-09-27T23:46:00.366Z,14.80
2018-09-27T23:48:29.422Z,14.80
2018-09-27T23:50:58.501Z,14.90
2018-09-27T23:53:27.582Z,14.90
2018-09-27T23:55:56.662Z,15.00
2018-09-27T23:58:25.779Z,15.00
